sensor_id;sensor_type;location;lat;lon;timestamp;pressure;altitude;pressure_sealevel;temperature;humidity
39681;BME280;26327;42.550;23.120;2023-02-20T07:14:40;93483.19;;;10.11;62.72
39681;BME280;26327;42.550;23.120;2023-02-20T07:17:06;93466.69;;;10.20;57.51
39681;BME280;26327;42.550;23.120;2023-02-20T07:19:31;93391.03;;;9.74;57.59
39681;BME280;26327;42.550;23.120;2023-02-20T07:21:56;93514.06;;;10.38;56.49
39681;BME280;26327;42.550;23.120;2023-02-20T07:24:22;93490.53;;;10.40;55.44
39681;BME280;26327;42.550;23.120;2023-02-20T07:26:47;93465.34;;;10.57;53.94
39681;BME280;26327;42.550;23.120;2023-02-20T07:29:13;93439.88;;;10.36;54.23
39681;BME280;26327;42.550;23.120;2023-02-20T07:31:38;93491.59;;;10.94;52.77
39681;BME280;26327;42.550;23.120;2023-02-20T07:34:03;93467.13;;;10.56;51.86
39681;BME280;26327;42.550;23.120;2023-02-20T07:36:29;93501.25;;;10.61;52.14
39681;BME280;26327;42.550;23.120;2023-02-20T07:38:56;93493.75;;;10.01;52.56
39681;BME280;26327;42.550;23.120;2023-02-20T07:41:23;93438.88;;;9.64;53.00
39681;BME280;26327;42.550;23.120;2023-02-20T07:43:49;93491.63;;;9.97;53.79
39681;BME280;26327;42.550;23.120;2023-02-20T07:46:14;93509.00;;;10.04;55.58
39681;BME280;26327;42.550;23.120;2023-02-20T07:48:40;93486.06;;;9.67;54.12
39681;BME280;26327;42.550;23.120;2023-02-20T07:51:05;93426.94;;;9.29;52.24
39681;BME280;26327;42.550;23.120;2023-02-20T07:53:31;93487.56;;;9.36;54.38
39681;BME280;26327;42.550;23.120;2023-02-20T07:55:56;93498.13;;;9.42;55.16
39681;BME280;26327;42.550;23.120;2023-02-20T07:58:21;93478.41;;;9.50;54.30
39681;BME280;26327;42.550;23.120;2023-02-20T08:00:48;93462.25;;;9.22;52.95
39681;BME280;26327;42.550;23.120;2023-02-20T08:03:16;93512.22;;;9.32;54.66
39681;BME280;26327;42.550;23.120;2023-02-20T08:05:42;93465.47;;;9.15;54.78
39681;BME280;26327;42.550;23.120;2023-02-20T08:08:07;93477.84;;;10.13;52.45
39681;BME280;26327;42.550;23.120;2023-02-20T08:10:33;93505.44;;;12.04;48.59
39681;BME280;26327;42.550;23.120;2023-02-20T08:12:58;93405.84;;;13.43;42.72
39681;BME280;26327;42.550;23.120;2023-02-20T08:15:24;93476.47;;;15.68;37.21
39681;BME280;26327;42.550;23.120;2023-02-20T08:17:49;93460.03;;;17.52;34.69
39681;BME280;26327;42.550;23.120;2023-02-20T08:20:16;93466.22;;;19.29;31.30
39681;BME280;26327;42.550;23.120;2023-02-20T08:22:48;93513.66;;;20.98;28.13
39681;BME280;26327;42.550;23.120;2023-02-20T08:25:16;93508.47;;;22.20;26.55
39681;BME280;26327;42.550;23.120;2023-02-20T08:27:47;93433.22;;;22.45;25.06
39681;BME280;26327;42.550;23.120;2023-02-20T08:30:16;93489.16;;;23.99;24.14
39681;BME280;26327;42.550;23.120;2023-02-20T08:32:42;93492.69;;;25.02;22.75
39681;BME280;26327;42.550;23.120;2023-02-20T08:35:07;93479.78;;;25.95;21.74
39681;BME280;26327;42.550;23.120;2023-02-20T08:37:33;93499.59;;;26.10;21.20
39681;BME280;26327;42.550;23.120;2023-02-20T08:39:58;93436.91;;;26.80;20.15
39681;BME280;26327;42.550;23.120;2023-02-20T08:42:24;93460.69;;;27.17;19.17
39681;BME280;26327;42.550;23.120;2023-02-20T08:44:50;93486.47;;;28.08;19.07
39681;BME280;26327;42.550;23.120;2023-02-20T08:47:18;93477.44;;;27.88;18.75
39681;BME280;26327;42.550;23.120;2023-02-20T08:49:46;93493.22;;;27.39;19.09
39681;BME280;26327;42.550;23.120;2023-02-20T08:52:12;93443.59;;;27.48;18.54
39681;BME280;26327;42.550;23.120;2023-02-20T08:54:37;93403.78;;;27.77;18.45
39681;BME280;26327;42.550;23.120;2023-02-20T08:57:03;93447.84;;;28.49;18.32
39681;BME280;26327;42.550;23.120;2023-02-20T08:59:30;93480.88;;;28.09;18.09
39681;BME280;26327;42.550;23.120;2023-02-20T09:01:56;93437.06;;;28.05;18.35
39681;BME280;26327;42.550;23.120;2023-02-20T09:04:22;93434.53;;;28.34;17.52
39681;BME280;26327;42.550;23.120;2023-02-20T09:06:48;93477.47;;;29.07;17.09
39681;BME280;26327;42.550;23.120;2023-02-20T09:09:13;93465.97;;;29.99;16.83
39681;BME280;26327;42.550;23.120;2023-02-20T09:11:39;93474.13;;;29.89;16.94
39681;BME280;26327;42.550;23.120;2023-02-20T09:14:04;93454.94;;;30.05;16.00
39681;BME280;26327;42.550;23.120;2023-02-20T09:16:30;93471.97;;;30.81;15.69
39681;BME280;26327;42.550;23.120;2023-02-20T09:18:55;93466.97;;;29.16;16.29
39681;BME280;26327;42.550;23.120;2023-02-20T09:21:21;93453.16;;;29.38;16.88
39681;BME280;26327;42.550;23.120;2023-02-20T09:23:46;93420.03;;;29.58;16.20
39681;BME280;26327;42.550;23.120;2023-02-20T09:26:12;93451.31;;;30.58;15.47
39681;BME280;26327;42.550;23.120;2023-02-20T09:28:38;93399.75;;;30.85;15.11
39681;BME280;26327;42.550;23.120;2023-02-20T09:31:05;93445.72;;;32.99;13.86
39681;BME280;26327;42.550;23.120;2023-02-20T09:33:30;93433.31;;;32.26;13.95
39681;BME280;26327;42.550;23.120;2023-02-20T09:35:58;93383.16;;;32.16;13.68
39681;BME280;26327;42.550;23.120;2023-02-20T09:38:24;93403.09;;;32.15;14.04
39681;BME280;26327;42.550;23.120;2023-02-20T09:40:59;93455.44;;;32.86;13.29
39681;BME280;26327;42.550;23.120;2023-02-20T09:43:29;93452.63;;;32.92;14.03
39681;BME280;26327;42.550;23.120;2023-02-20T09:46:19;93440.91;;;32.74;13.79
39681;BME280;26327;42.550;23.120;2023-02-20T09:48:50;93450.25;;;34.50;12.93
39681;BME280;26327;42.550;23.120;2023-02-20T09:51:22;93420.22;;;33.95;12.59
39681;BME280;26327;42.550;23.120;2023-02-20T09:54:16;93391.91;;;33.44;12.68
39681;BME280;26327;42.550;23.120;2023-02-20T09:56:53;93399.09;;;34.28;12.63
39681;BME280;26327;42.550;23.120;2023-02-20T09:59:48;93447.47;;;34.72;12.59
39681;BME280;26327;42.550;23.120;2023-02-20T10:02:19;93455.56;;;34.72;12.56
39681;BME280;26327;42.550;23.120;2023-02-20T10:04:52;93433.25;;;34.41;12.98
39681;BME280;26327;42.550;23.120;2023-02-20T10:07:25;93451.31;;;34.89;12.27
39681;BME280;26327;42.550;23.120;2023-02-20T10:09:51;93414.63;;;34.31;12.95
39681;BME280;26327;42.550;23.120;2023-02-20T10:15:33;93434.28;;;34.14;11.74
39681;BME280;26327;42.550;23.120;2023-02-20T10:20:50;93430.69;;;31.93;12.87
39681;BME280;26327;42.550;23.120;2023-02-20T10:24:01;93438.75;;;31.93;12.79
39681;BME280;26327;42.550;23.120;2023-02-20T10:26:37;93423.44;;;30.96;13.05
39681;BME280;26327;42.550;23.120;2023-02-20T10:55:02;93406.47;;;32.48;12.75
39681;BME280;26327;42.550;23.120;2023-02-20T10:57:35;93404.44;;;33.26;12.28
39681;BME280;26327;42.550;23.120;2023-02-20T11:00:04;93409.03;;;33.03;11.93
39681;BME280;26327;42.550;23.120;2023-02-20T11:02:36;93366.28;;;31.75;12.53
39681;BME280;26327;42.550;23.120;2023-02-20T11:05:09;93394.16;;;31.92;12.92
39681;BME280;26327;42.550;23.120;2023-02-20T11:07:35;93324.66;;;28.75;13.81
39681;BME280;26327;42.550;23.120;2023-02-20T11:10:01;93372.38;;;29.84;13.83
39681;BME280;26327;42.550;23.120;2023-02-20T11:12:31;93350.22;;;28.96;14.37
39681;BME280;26327;42.550;23.120;2023-02-20T11:15:05;93383.19;;;30.59;13.37
39681;BME280;26327;42.550;23.120;2023-02-20T11:17:31;93395.25;;;30.80;13.52
39681;BME280;26327;42.550;23.120;2023-02-20T11:19:59;93377.19;;;30.48;13.53
39681;BME280;26327;42.550;23.120;2023-02-20T11:22:48;93396.53;;;30.02;14.15
39681;BME280;26327;42.550;23.120;2023-02-20T11:25:25;93316.56;;;29.91;14.02
39681;BME280;26327;42.550;23.120;2023-02-20T11:28:19;93396.66;;;31.29;13.02
39681;BME280;26327;42.550;23.120;2023-02-20T11:31:05;93396.06;;;31.32;13.17
39681;BME280;26327;42.550;23.120;2023-02-20T11:33:49;93402.84;;;30.73;13.50
39681;BME280;26327;42.550;23.120;2023-02-20T11:36:22;93382.44;;;31.42;13.05
39681;BME280;26327;42.550;23.120;2023-02-20T11:38:58;93408.00;;;31.86;12.84
39681;BME280;26327;42.550;23.120;2023-02-20T11:41:28;93394.34;;;31.96;13.18
39681;BME280;26327;42.550;23.120;2023-02-20T11:44:15;93397.91;;;32.46;12.87
39681;BME280;26327;42.550;23.120;2023-02-20T11:46:41;93336.16;;;32.41;12.94
39681;BME280;26327;42.550;23.120;2023-02-20T11:49:09;93383.91;;;32.72;12.76
39681;BME280;26327;42.550;23.120;2023-02-20T11:51:46;93362.22;;;30.98;13.22
39681;BME280;26327;42.550;23.120;2023-02-20T11:54:25;93363.34;;;29.51;13.97
39681;BME280;26327;42.550;23.120;2023-02-20T11:57:05;93414.25;;;29.74;13.96
39681;BME280;26327;42.550;23.120;2023-02-20T11:59:44;93378.72;;;30.35;13.83
39681;BME280;26327;42.550;23.120;2023-02-20T12:04:42;93393.09;;;29.73;13.88
39681;BME280;26327;42.550;23.120;2023-02-20T12:07:28;93397.44;;;29.40;14.57
39681;BME280;26327;42.550;23.120;2023-02-20T12:09:58;93405.31;;;27.99;14.91
39681;BME280;26327;42.550;23.120;2023-02-20T12:12:27;93395.38;;;27.04;15.95
39681;BME280;26327;42.550;23.120;2023-02-20T12:14:55;93345.38;;;26.03;16.72
39681;BME280;26327;42.550;23.120;2023-02-20T12:20:15;93389.84;;;23.95;18.68
39681;BME280;26327;42.550;23.120;2023-02-20T12:22:46;93389.91;;;23.18;19.27
39681;BME280;26327;42.550;23.120;2023-02-20T12:38:47;93400.53;;;18.91;24.55
39681;BME280;26327;42.550;23.120;2023-02-20T12:47:01;93420.75;;;16.53;28.61
39681;BME280;26327;42.550;23.120;2023-02-20T12:52:33;93418.09;;;15.46;29.91
39681;BME280;26327;42.550;23.120;2023-02-20T12:57:44;93427.31;;;15.29;31.62
39681;BME280;26327;42.550;23.120;2023-02-20T13:00:29;93415.69;;;14.69;32.59
39681;BME280;26327;42.550;23.120;2023-02-20T13:05:58;93387.50;;;13.94;34.98
39681;BME280;26327;42.550;23.120;2023-02-20T13:08:28;93425.25;;;13.91;33.99
39681;BME280;26327;42.550;23.120;2023-02-20T13:10:59;93400.25;;;13.82;34.34
39681;BME280;26327;42.550;23.120;2023-02-20T13:13:30;93335.81;;;13.46;35.01
39681;BME280;26327;42.550;23.120;2023-02-20T13:16:01;93404.06;;;13.65;35.35
39681;BME280;26327;42.550;23.120;2023-02-20T13:21:14;93279.50;;;12.06;35.68
39681;BME280;26327;42.550;23.120;2023-02-20T13:23:40;93411.47;;;12.96;35.96
39681;BME280;26327;42.550;23.120;2023-02-20T13:32:00;93392.59;;;12.79;36.20
39681;BME280;26327;42.550;23.120;2023-02-20T13:34:33;93354.38;;;12.42;37.31
39681;BME280;26327;42.550;23.120;2023-02-20T13:36:59;93391.13;;;12.61;37.35
39681;BME280;26327;42.550;23.120;2023-02-20T13:42:00;93435.09;;;12.65;38.51
39681;BME280;26327;42.550;23.120;2023-02-20T13:52:42;93445.81;;;12.32;40.28
39681;BME280;26327;42.550;23.120;2023-02-20T14:00:24;93414.16;;;12.20;40.44
39681;BME280;26327;42.550;23.120;2023-02-20T14:02:51;93390.56;;;11.99;39.91
39681;BME280;26327;42.550;23.120;2023-02-20T14:05:26;93449.25;;;12.33;40.69
39681;BME280;26327;42.550;23.120;2023-02-20T14:07:52;93434.00;;;12.21;40.60
39681;BME280;26327;42.550;23.120;2023-02-20T14:10:33;93364.34;;;11.55;40.57
39681;BME280;26327;42.550;23.120;2023-02-20T14:13:11;93417.19;;;11.86;40.92
39681;BME280;26327;42.550;23.120;2023-02-20T14:18:19;93314.41;;;11.06;42.08
39681;BME280;26327;42.550;23.120;2023-02-20T14:20:47;93395.91;;;11.52;42.80
39681;BME280;26327;42.550;23.120;2023-02-20T14:23:28;93407.31;;;11.51;41.80
39681;BME280;26327;42.550;23.120;2023-02-20T14:26:02;93414.53;;;11.32;42.38
39681;BME280;26327;42.550;23.120;2023-02-20T14:28:30;93369.66;;;11.08;42.25
39681;BME280;26327;42.550;23.120;2023-02-20T14:31:04;93412.81;;;11.25;41.93
39681;BME280;26327;42.550;23.120;2023-02-20T14:33:31;93448.66;;;11.46;42.64
39681;BME280;26327;42.550;23.120;2023-02-20T14:38:39;93443.16;;;11.32;41.97
39681;BME280;26327;42.550;23.120;2023-02-20T14:41:14;93431.59;;;11.35;42.30
39681;BME280;26327;42.550;23.120;2023-02-20T14:43:41;93445.38;;;11.52;42.86
39681;BME280;26327;42.550;23.120;2023-02-20T14:46:19;93436.66;;;11.37;42.88
39681;BME280;26327;42.550;23.120;2023-02-20T14:48:45;93439.59;;;11.33;42.98
39681;BME280;26327;42.550;23.120;2023-02-20T14:51:14;93446.91;;;11.30;44.15
39681;BME280;26327;42.550;23.120;2023-02-20T14:53:42;93441.13;;;11.20;44.67
39681;BME280;26327;42.550;23.120;2023-02-20T14:56:16;93377.13;;;10.71;44.43
39681;BME280;26327;42.550;23.120;2023-02-20T14:58:44;93442.44;;;11.16;44.67
39681;BME280;26327;42.550;23.120;2023-02-20T15:01:33;93462.31;;;11.09;44.00
39681;BME280;26327;42.550;23.120;2023-02-20T15:04:06;93427.28;;;10.88;44.82
39681;BME280;26327;42.550;23.120;2023-02-20T15:06:35;93438.63;;;10.95;44.55
39681;BME280;26327;42.550;23.120;2023-02-20T15:09:03;93420.63;;;10.78;44.27
39681;BME280;26327;42.550;23.120;2023-02-20T15:11:30;93405.41;;;10.66;44.20
39681;BME280;26327;42.550;23.120;2023-02-20T15:13:55;93426.31;;;10.73;43.91
39681;BME280;26327;42.550;23.120;2023-02-20T15:16:23;93432.66;;;10.70;44.09
39681;BME280;26327;42.550;23.120;2023-02-20T15:18:50;93439.34;;;10.65;44.77
39681;BME280;26327;42.550;23.120;2023-02-20T15:21:30;93401.72;;;10.45;45.35
39681;BME280;26327;42.550;23.120;2023-02-20T15:24:10;93440.84;;;10.51;45.59
39681;BME280;26327;42.550;23.120;2023-02-20T15:26:36;93356.31;;;9.92;46.16
39681;BME280;26327;42.550;23.120;2023-02-20T15:31:44;93361.53;;;9.59;47.77
39681;BME280;26327;42.550;23.120;2023-02-20T15:34:18;93433.88;;;10.03;47.95
39681;BME280;26327;42.550;23.120;2023-02-20T15:36:47;93448.44;;;9.88;48.97
39681;BME280;26327;42.550;23.120;2023-02-20T15:39:15;93451.03;;;9.71;49.46
39681;BME280;26327;42.550;23.120;2023-02-20T15:41:41;93448.91;;;9.59;49.88
39681;BME280;26327;42.550;23.120;2023-02-20T15:44:07;93463.81;;;9.57;50.33
39681;BME280;26327;42.550;23.120;2023-02-20T15:46:32;93466.84;;;9.44;50.86
39681;BME280;26327;42.550;23.120;2023-02-20T15:48:58;93468.47;;;9.37;51.06
39681;BME280;26327;42.550;23.120;2023-02-20T15:51:24;93454.66;;;9.28;51.30
39681;BME280;26327;42.550;23.120;2023-02-20T15:53:55;93445.72;;;9.23;51.44
39681;BME280;26327;42.550;23.120;2023-02-20T15:56:22;93473.28;;;9.24;52.09
39681;BME280;26327;42.550;23.120;2023-02-20T15:58:48;93481.22;;;9.22;52.59
39681;BME280;26327;42.550;23.120;2023-02-20T16:01:14;93403.75;;;8.77;52.72
39681;BME280;26327;42.550;23.120;2023-02-20T16:03:41;93407.28;;;8.68;53.14
39681;BME280;26327;42.550;23.120;2023-02-20T16:06:07;93492.34;;;9.06;53.99
39681;BME280;26327;42.550;23.120;2023-02-20T16:08:33;93463.84;;;8.80;53.59
39681;BME280;26327;42.550;23.120;2023-02-20T16:10:58;93482.75;;;8.73;55.01
39681;BME280;26327;42.550;23.120;2023-02-20T16:13:37;93490.53;;;8.73;55.46
39681;BME280;26327;42.550;23.120;2023-02-20T16:16:17;93484.91;;;8.77;56.10
39681;BME280;26327;42.550;23.120;2023-02-20T16:18:43;93486.31;;;8.72;56.32
39681;BME280;26327;42.550;23.120;2023-02-20T16:21:12;93418.00;;;8.21;56.61
39681;BME280;26327;42.550;23.120;2023-02-20T16:23:38;93483.66;;;8.56;56.94
39681;BME280;26327;42.550;23.120;2023-02-20T16:26:06;93481.44;;;8.43;56.98
39681;BME280;26327;42.550;23.120;2023-02-20T16:28:31;93391.13;;;7.96;57.23
39681;BME280;26327;42.550;23.120;2023-02-20T16:30:57;93478.34;;;8.39;57.05
39681;BME280;26327;42.550;23.120;2023-02-20T16:33:23;93504.53;;;8.36;57.99
39681;BME280;26327;42.550;23.120;2023-02-20T16:35:50;93499.88;;;8.22;58.11
39681;BME280;26327;42.550;23.120;2023-02-20T16:38:16;93458.94;;;7.82;58.86
39681;BME280;26327;42.550;23.120;2023-02-20T16:40:42;93498.78;;;7.89;59.39
39681;BME280;26327;42.550;23.120;2023-02-20T16:43:10;93496.69;;;7.93;58.60
39681;BME280;26327;42.550;23.120;2023-02-20T16:45:36;93362.94;;;6.96;59.32
39681;BME280;26327;42.550;23.120;2023-02-20T16:48:02;93491.63;;;7.65;59.04
39681;BME280;26327;42.550;23.120;2023-02-20T16:50:28;93509.22;;;7.52;60.55
39681;BME280;26327;42.550;23.120;2023-02-20T16:52:56;93518.88;;;7.60;60.52
39681;BME280;26327;42.550;23.120;2023-02-20T16:55:31;93414.25;;;6.91;60.35
39681;BME280;26327;42.550;23.120;2023-02-20T16:57:57;93459.78;;;7.19;60.38
39681;BME280;26327;42.550;23.120;2023-02-20T17:00:26;93448.41;;;7.12;61.39
39681;BME280;26327;42.550;23.120;2023-02-20T17:02:53;93516.69;;;7.55;61.28
39681;BME280;26327;42.550;23.120;2023-02-20T17:05:21;93536.53;;;7.64;60.99
39681;BME280;26327;42.550;23.120;2023-02-20T17:07:47;93534.84;;;7.45;61.64
39681;BME280;26327;42.550;23.120;2023-02-20T17:10:12;93519.16;;;7.29;62.64
39681;BME280;26327;42.550;23.120;2023-02-20T17:12:38;93395.47;;;6.34;62.95
39681;BME280;26327;42.550;23.120;2023-02-20T17:15:04;93405.69;;;6.26;66.03
39681;BME280;26327;42.550;23.120;2023-02-20T17:17:30;93501.19;;;6.73;67.12
39681;BME280;26327;42.550;23.120;2023-02-20T17:19:57;93524.97;;;6.76;67.25
39681;BME280;26327;42.550;23.120;2023-02-20T17:22:24;93503.81;;;6.53;68.47
39681;BME280;26327;42.550;23.120;2023-02-20T17:24:50;93525.94;;;6.56;67.64
39681;BME280;26327;42.550;23.120;2023-02-20T17:27:15;93526.69;;;6.29;69.80
39681;BME280;26327;42.550;23.120;2023-02-20T17:29:42;93527.25;;;6.23;69.41
39681;BME280;26327;42.550;23.120;2023-02-20T17:32:08;93485.44;;;5.90;68.71
39681;BME280;26327;42.550;23.120;2023-02-20T17:34:33;93532.69;;;6.20;69.30
39681;BME280;26327;42.550;23.120;2023-02-20T17:36:59;93464.38;;;5.66;70.28
39681;BME280;26327;42.550;23.120;2023-02-20T17:39:25;93516.38;;;5.90;71.35
39681;BME280;26327;42.550;23.120;2023-02-20T17:41:52;93540.53;;;6.09;71.45
39681;BME280;26327;42.550;23.120;2023-02-20T17:44:20;93528.47;;;5.90;72.22
39681;BME280;26327;42.550;23.120;2023-02-20T17:46:46;93521.47;;;5.61;72.95
39681;BME280;26327;42.550;23.120;2023-02-20T17:49:14;93471.88;;;4.29;78.50
39681;BME280;26327;42.550;23.120;2023-02-20T17:51:41;93478.81;;;4.18;80.88
39681;BME280;26327;42.550;23.120;2023-02-20T17:54:07;93488.75;;;4.01;82.09
39681;BME280;26327;42.550;23.120;2023-02-20T17:56:32;93461.44;;;3.47;85.13
39681;BME280;26327;42.550;23.120;2023-02-20T17:58:58;93519.88;;;4.40;82.29
39681;BME280;26327;42.550;23.120;2023-02-20T18:01:24;93467.47;;;4.20;81.77
39681;BME280;26327;42.550;23.120;2023-02-20T18:03:52;93533.97;;;4.46;82.16
39681;BME280;26327;42.550;23.120;2023-02-20T18:06:18;93521.06;;;4.36;82.36
39681;BME280;26327;42.550;23.120;2023-02-20T18:08:46;93500.03;;;4.31;82.38
39681;BME280;26327;42.550;23.120;2023-02-20T18:11:12;93445.59;;;4.05;82.18
39681;BME280;26327;42.550;23.120;2023-02-20T18:13:38;93521.59;;;4.60;81.00
39681;BME280;26327;42.550;23.120;2023-02-20T18:16:03;93550.41;;;4.13;83.63
39681;BME280;26327;42.550;23.120;2023-02-20T18:18:29;93457.59;;;3.95;82.83
39681;BME280;26327;42.550;23.120;2023-02-20T18:20:54;93535.78;;;4.55;81.78
39681;BME280;26327;42.550;23.120;2023-02-20T18:23:20;93548.44;;;4.67;81.34
39681;BME280;26327;42.550;23.120;2023-02-20T18:25:45;93527.81;;;4.58;81.04
39681;BME280;26327;42.550;23.120;2023-02-20T18:28:11;93443.47;;;4.10;81.25
39681;BME280;26327;42.550;23.120;2023-02-20T18:30:36;93532.31;;;3.50;88.08
39681;BME280;26327;42.550;23.120;2023-02-20T18:33:02;93494.97;;;2.92;92.41
39681;BME280;26327;42.550;23.120;2023-02-20T18:35:28;93441.00;;;2.48;93.46
39681;BME280;26327;42.550;23.120;2023-02-20T18:37:53;93477.38;;;2.65;94.35
39681;BME280;26327;42.550;23.120;2023-02-20T18:40:18;93522.97;;;2.95;93.87
39681;BME280;26327;42.550;23.120;2023-02-20T18:42:44;93432.59;;;2.58;94.03
39681;BME280;26327;42.550;23.120;2023-02-20T18:45:10;93520.50;;;3.04;94.63
39681;BME280;26327;42.550;23.120;2023-02-20T18:47:35;93445.75;;;2.75;93.77
39681;BME280;26327;42.550;23.120;2023-02-20T18:50:01;93514.81;;;3.44;91.70
39681;BME280;26327;42.550;23.120;2023-02-20T18:52:26;93486.69;;;2.66;93.52
39681;BME280;26327;42.550;23.120;2023-02-20T18:54:51;93433.31;;;2.48;93.30
39681;BME280;26327;42.550;23.120;2023-02-20T18:57:17;93503.47;;;2.92;94.33
39681;BME280;26327;42.550;23.120;2023-02-20T18:59:43;93430.75;;;2.37;94.88
39681;BME280;26327;42.550;23.120;2023-02-20T19:02:12;93492.75;;;2.87;94.81
39681;BME280;26327;42.550;23.120;2023-02-20T19:04:38;93489.94;;;2.79;94.39
39681;BME280;26327;42.550;23.120;2023-02-20T19:07:04;93468.03;;;2.30;95.64
39681;BME280;26327;42.550;23.120;2023-02-20T19:09:30;93473.97;;;2.75;95.31
39681;BME280;26327;42.550;23.120;2023-02-20T19:12:04;93504.31;;;2.70;94.99
39681;BME280;26327;42.550;23.120;2023-02-20T19:14:33;93490.91;;;2.44;96.13
39681;BME280;26327;42.550;23.120;2023-02-20T19:17:00;93470.53;;;3.08;92.91
39681;BME280;26327;42.550;23.120;2023-02-20T19:19:27;93409.13;;;2.73;92.50
39681;BME280;26327;42.550;23.120;2023-02-20T19:21:55;93472.69;;;3.35;91.93
39681;BME280;26327;42.550;23.120;2023-02-20T19:24:21;93506.34;;;3.32;91.91
39681;BME280;26327;42.550;23.120;2023-02-20T19:26:47;93469.06;;;2.95;94.07
39681;BME280;26327;42.550;23.120;2023-02-20T19:29:12;93360.25;;;2.20;94.62
39681;BME280;26327;42.550;23.120;2023-02-20T19:31:38;93415.38;;;3.03;92.04
39681;BME280;26327;42.550;23.120;2023-02-20T19:34:04;93495.56;;;3.38;92.62
39681;BME280;26327;42.550;23.120;2023-02-20T19:36:30;93491.00;;;3.42;92.22
39681;BME280;26327;42.550;23.120;2023-02-20T19:38:55;93414.91;;;2.98;91.21
39681;BME280;26327;42.550;23.120;2023-02-20T19:41:21;93432.91;;;2.87;91.39
39681;BME280;26327;42.550;23.120;2023-02-20T19:43:47;93491.69;;;2.78;95.17
39681;BME280;26327;42.550;23.120;2023-02-20T19:46:17;93423.16;;;2.25;96.34
39681;BME280;26327;42.550;23.120;2023-02-20T19:48:43;93485.88;;;2.65;95.86
39681;BME280;26327;42.550;23.120;2023-02-20T19:51:13;93462.47;;;2.47;96.21
39681;BME280;26327;42.550;23.120;2023-02-20T19:53:39;93493.34;;;2.57;96.22
39681;BME280;26327;42.550;23.120;2023-02-20T19:56:05;93426.16;;;1.85;97.33
39681;BME280;26327;42.550;23.120;2023-02-20T19:58:33;93486.31;;;2.14;99.65
39681;BME280;26327;42.550;23.120;2023-02-20T20:01:01;93493.19;;;2.25;99.79
39681;BME280;26327;42.550;23.120;2023-02-20T20:03:26;93429.31;;;1.88;98.93
39681;BME280;26327;42.550;23.120;2023-02-20T20:05:52;93480.25;;;2.82;97.05
39681;BME280;26327;42.550;23.120;2023-02-20T20:08:17;93354.84;;;2.46;93.95
39681;BME280;26327;42.550;23.120;2023-02-20T20:10:42;93448.44;;;3.17;93.72
39681;BME280;26327;42.550;23.120;2023-02-20T20:13:08;93453.53;;;3.39;91.80
39681;BME280;26327;42.550;23.120;2023-02-20T20:15:33;93471.59;;;3.49;91.56
39681;BME280;26327;42.550;23.120;2023-02-20T20:18:01;93468.16;;;3.60;90.81
39681;BME280;26327;42.550;23.120;2023-02-20T20:20:28;93466.50;;;2.72;93.87
39681;BME280;26327;42.550;23.120;2023-02-20T20:22:58;93471.75;;;3.36;92.46
39681;BME280;26327;42.550;23.120;2023-02-20T20:25:25;93394.94;;;3.01;90.56
39681;BME280;26327;42.550;23.120;2023-02-20T20:27:51;93391.00;;;2.20;94.05
39681;BME280;26327;42.550;23.120;2023-02-20T20:30:23;93469.56;;;2.44;95.71
39681;BME280;26327;42.550;23.120;2023-02-20T20:32:49;93343.88;;;1.32;98.65
39681;BME280;26327;42.550;23.120;2023-02-20T20:35:16;93431.25;;;1.74;99.03
39681;BME280;26327;42.550;23.120;2023-02-20T20:37:42;93383.88;;;1.22;100.00
39681;BME280;26327;42.550;23.120;2023-02-20T20:40:08;93468.34;;;1.92;100.00
39681;BME280;26327;42.550;23.120;2023-02-20T20:42:33;93449.03;;;2.21;100.00
39681;BME280;26327;42.550;23.120;2023-02-20T20:44:59;93466.78;;;2.47;99.54
39681;BME280;26327;42.550;23.120;2023-02-20T20:47:28;93385.41;;;2.27;98.02
39681;BME280;26327;42.550;23.120;2023-02-20T20:49:54;93373.38;;;2.49;95.77
39681;BME280;26327;42.550;23.120;2023-02-20T20:52:20;93373.09;;;2.75;94.41
39681;BME280;26327;42.550;23.120;2023-02-20T20:54:49;93378.03;;;2.99;92.84
39681;BME280;26327;42.550;23.120;2023-02-20T20:57:21;93457.72;;;3.40;92.18
39681;BME280;26327;42.550;23.120;2023-02-20T20:59:48;93452.75;;;2.62;95.43
39681;BME280;26327;42.550;23.120;2023-02-20T21:02:17;93381.22;;;1.92;97.75
39681;BME280;26327;42.550;23.120;2023-02-20T21:04:44;93450.53;;;1.91;100.00
39681;BME280;26327;42.550;23.120;2023-02-20T21:07:10;93450.00;;;2.43;100.00
39681;BME280;26327;42.550;23.120;2023-02-20T21:09:36;93446.31;;;2.79;96.86
39681;BME280;26327;42.550;23.120;2023-02-20T21:12:01;93437.97;;;3.09;94.09
39681;BME280;26327;42.550;23.120;2023-02-20T21:14:27;93438.00;;;2.98;94.01
39681;BME280;26327;42.550;23.120;2023-02-20T21:16:52;93414.59;;;2.80;94.60
39681;BME280;26327;42.550;23.120;2023-02-20T21:19:18;93432.94;;;3.19;93.75
39681;BME280;26327;42.550;23.120;2023-02-20T21:21:44;93421.97;;;3.48;91.32
39681;BME280;26327;42.550;23.120;2023-02-20T21:24:09;93431.13;;;2.98;93.86
39681;BME280;26327;42.550;23.120;2023-02-20T21:26:35;93418.72;;;2.60;96.02
39681;BME280;26327;42.550;23.120;2023-02-20T21:29:03;93432.63;;;3.01;95.58
39681;BME280;26327;42.550;23.120;2023-02-20T21:31:31;93410.97;;;2.94;94.54
39681;BME280;26327;42.550;23.120;2023-02-20T21:33:57;93422.66;;;2.87;95.45
39681;BME280;26327;42.550;23.120;2023-02-20T21:36:23;93407.19;;;2.55;96.64
39681;BME280;26327;42.550;23.120;2023-02-20T21:38:49;93409.53;;;2.24;98.98
39681;BME280;26327;42.550;23.120;2023-02-20T21:41:18;93386.59;;;2.11;99.65
39681;BME280;26327;42.550;23.120;2023-02-20T21:44:03;93408.56;;;2.70;97.18
39681;BME280;26327;42.550;23.120;2023-02-20T21:46:52;93344.88;;;2.09;97.63
39681;BME280;26327;42.550;23.120;2023-02-20T21:49:17;93338.78;;;2.33;96.62
39681;BME280;26327;42.550;23.120;2023-02-20T21:51:43;93332.22;;;2.83;93.72
39681;BME280;26327;42.550;23.120;2023-02-20T21:54:08;93396.09;;;3.29;92.75